createdAt,value
2018-04-14T00:06:20.588Z,53.30
2018-04-14T00:06:55.076Z,52.45
2018-04-14T00:07:28.791Z,51.47
2018-04-14T00:08:03.315Z,51.25
2018-04-14T00:08:37.046Z,50.22
2018-04-14T00:09:10.788Z,51.50
2018-04-14T00:09:45.294Z,50.75
2018-04-14T00:10:19.804Z,47.88
2018-04-14T00:10:54.289Z,50.15
2018-04-14T00:11:28.023Z,50.10
2018-04-14T00:12:01.483Z,52.10
2018-04-14T00:12:35.979Z,52.08
2018-04-14T00:13:10.461Z,49.58
2018-04-14T00:13:44.203Z,53.17
2018-04-14T00:14:17.926Z,53.38
2018-04-14T00:14:51.684Z,50.85
2018-04-14T00:15:26.195Z,52.90
2018-04-14T00:16:00.695Z,52.15
2018-04-14T00:16:34.859Z,49.60
2018-04-14T00:17:08.590Z,52.15
2018-04-14T00:17:43.121Z,49.88
2018-04-14T00:18:16.847Z,50.63
2018-04-14T00:18:50.568Z,51.75
2018-04-14T00:19:25.082Z,53.22
2018-04-14T00:19:59.588Z,54.30
2018-04-14T00:20:33.313Z,54.60
2018-04-14T00:21:07.045Z,53.00
2018-04-14T00:21:40.771Z,54.75
2018-04-14T00:22:14.509Z,53.03
2018-04-14T00:22:48.234Z,53.15
2018-04-14T00:23:21.956Z,54.35
2018-04-14T00:23:55.697Z,54.25
2018-04-14T00:24:30.955Z,53.15
2018-04-14T00:25:05.465Z,51.78
2018-04-14T00:25:39.959Z,52.60
2018-04-14T00:26:13.688Z,53.08
2018-04-14T00:26:47.429Z,50.95
2018-04-14T00:27:21.151Z,51.25
2018-04-14T00:27:55.649Z,51.25
2018-04-14T00:28:30.137Z,53.22
2018-04-14T00:29:03.867Z,51.92
2018-04-14T00:29:38.359Z,51.80
2018-04-14T00:30:12.883Z,50.90
2018-04-14T00:30:46.623Z,50.50
2018-04-14T00:31:20.360Z,50.53
2018-04-14T00:31:54.852Z,52.62
2018-04-14T00:32:29.353Z,52.15
2018-04-14T00:33:03.099Z,51.13
2018-04-14T00:33:36.820Z,51.65
2018-04-14T00:34:10.544Z,51.83
2018-04-14T00:34:45.047Z,50.42
2018-04-14T00:35:18.796Z,52.45
2018-04-14T00:35:52.536Z,50.67
2018-04-14T00:36:27.033Z,52.92
2018-04-14T00:37:00.782Z,52.90
2018-04-14T00:37:34.512Z,52.40
2018-04-14T00:38:08.239Z,53.47
2018-04-14T00:38:41.981Z,53.28
2018-04-14T00:39:16.388Z,53.20
2018-04-14T00:39:49.776Z,52.22
2018-04-14T00:40:23.540Z,53.17
2018-04-14T00:40:57.256Z,51.45
2018-04-14T00:41:30.994Z,53.87
2018-04-14T00:42:04.721Z,52.22
2018-04-14T00:42:38.444Z,52.50
2018-04-14T00:43:12.952Z,52.58
2018-04-14T00:43:47.444Z,52.83
2018-04-14T00:44:21.172Z,52.60
2018-04-14T00:44:54.930Z,52.62
2018-04-14T00:45:28.642Z,51.13
2018-04-14T00:46:03.167Z,51.63
2018-04-14T00:46:36.906Z,52.42
2018-04-14T00:47:10.632Z,54.58
2018-04-14T00:47:45.133Z,53.65
2018-04-14T00:48:18.876Z,54.40
2018-04-14T00:48:52.622Z,52.65
2018-04-14T00:49:26.533Z,53.58
2018-04-14T00:50:00.300Z,52.55
2018-04-14T00:50:34.068Z,51.50
2018-04-14T00:51:08.494Z,52.30
2018-04-14T00:51:42.225Z,53.08
2018-04-14T00:52:15.945Z,54.80
2018-04-14T00:52:49.685Z,52.70
2018-04-14T00:53:35.051Z,54.80
2018-04-14T00:54:09.542Z,53.90
2018-04-14T00:54:43.047Z,52.47
2018-04-14T00:55:17.332Z,54.13
2018-04-14T00:55:50.840Z,53.65
2018-04-14T00:56:24.778Z,53.65
2018-04-14T00:56:58.303Z,53.67
2018-04-14T00:57:32.795Z,55.88
2018-04-14T00:58:06.292Z,52.72
2018-04-14T00:58:39.788Z,51.53
2018-04-14T00:59:14.292Z,51.90
2018-04-14T00:59:48.792Z,51.95
2018-04-14T01:00:22.582Z,51.22
2018-04-14T01:00:55.980Z,51.15
2018-04-14T01:01:30.480Z,51.72
2018-04-14T01:02:04.212Z,51.20
2018-04-14T01:02:37.963Z,48.90
2018-04-14T01:03:11.698Z,48.90
2018-04-14T01:03:45.432Z,50.38
2018-04-14T01:04:19.160Z,51.83
2018-04-14T01:04:52.910Z,51.45
2018-04-14T01:05:26.675Z,50.65
2018-04-14T01:06:00.409Z,49.08
2018-04-14T01:06:34.894Z,49.35
2018-04-14T01:07:08.644Z,47.88
2018-04-14T01:07:42.379Z,48.28
2018-04-14T01:08:15.773Z,49.25
2018-04-14T01:08:49.494Z,49.63
2018-04-14T01:09:23.249Z,50.72
2018-04-14T01:09:56.977Z,49.88
2018-04-14T01:10:31.490Z,49.28
2018-04-14T01:11:04.874Z,48.25
2018-04-14T01:11:38.599Z,46.88
2018-04-14T01:12:12.323Z,46.70
2018-04-14T01:12:46.047Z,46.40
2018-04-14T01:13:19.783Z,47.85
2018-04-14T01:13:53.506Z,48.15
2018-04-14T01:14:27.998Z,47.30
2018-04-14T01:15:01.715Z,50.50
2018-04-14T01:15:36.250Z,47.70
2018-04-14T01:16:09.985Z,46.72
2018-04-14T01:16:43.756Z,47.35
2018-04-14T01:17:17.489Z,47.03
2018-04-14T01:17:51.999Z,47.78
2018-04-14T01:18:26.501Z,47.92
2018-04-14T01:18:59.955Z,47.33
2018-04-14T01:19:33.114Z,45.80
2018-04-14T01:20:06.850Z,46.85
2018-04-14T01:20:40.337Z,45.27
2018-04-14T01:21:14.068Z,47.00
2018-04-14T01:21:47.810Z,46.97
2018-04-14T01:22:21.542Z,45.10
2018-04-14T01:22:55.277Z,44.35
2018-04-14T01:23:28.678Z,45.95
2018-04-14T01:24:02.417Z,48.30
2018-04-14T01:24:35.916Z,46.55
2018-04-14T01:25:09.656Z,45.38
2018-04-14T01:25:43.546Z,47.22
2018-04-14T01:26:17.291Z,47.92
2018-04-14T01:26:51.027Z,46.15
2018-04-14T01:27:24.482Z,46.57
2018-04-14T01:27:58.205Z,47.25
2018-04-14T01:28:31.943Z,47.83
2018-04-14T01:29:05.844Z,46.63
2018-04-14T01:29:39.557Z,46.10
2018-04-14T01:30:13.287Z,46.78
2018-04-14T01:30:47.797Z,47.33
2018-04-14T01:31:22.302Z,47.65
2018-04-14T01:31:56.792Z,46.88
2018-04-14T01:32:30.555Z,44.55
2018-04-14T01:33:04.867Z,47.65
2018-04-14T01:33:38.595Z,46.83
2018-04-14T01:34:13.110Z,49.80
2018-04-14T01:34:46.578Z,47.60
2018-04-14T01:35:20.307Z,47.65
2018-04-14T01:35:54.050Z,47.33
2018-04-14T01:36:27.782Z,47.40
2018-04-14T01:37:01.237Z,46.13
2018-04-14T01:37:35.733Z,46.63
2018-04-14T01:38:09.464Z,45.50
2018-04-14T01:38:42.928Z,45.00
2018-04-14T01:39:16.384Z,44.80
2018-04-14T01:39:50.606Z,45.43
2018-04-14T01:40:24.348Z,47.03
2018-04-14T01:40:58.098Z,46.15
2018-04-14T01:41:32.375Z,44.83
2018-04-14T01:42:05.239Z,46.75
2018-04-14T01:42:38.748Z,44.45
2018-04-14T01:43:12.490Z,45.53
2018-04-14T01:43:46.226Z,45.15
2018-04-14T01:44:19.960Z,44.25
2018-04-14T01:44:53.424Z,42.43
2018-04-14T01:45:27.694Z,46.90
2018-04-14T01:46:01.448Z,44.22
2018-04-14T01:46:34.918Z,46.40
2018-04-14T01:47:08.642Z,45.05
2018-04-14T01:47:42.373Z,45.03
2018-04-14T01:48:16.863Z,46.50
2018-04-14T01:48:50.606Z,44.08
2018-04-14T01:49:24.059Z,46.37
2018-04-14T01:49:57.524Z,45.20
2018-04-14T01:50:31.256Z,44.35
2018-04-14T01:51:05.022Z,43.90
2018-04-14T01:51:38.476Z,44.07
2018-04-14T01:52:11.872Z,43.75
2018-04-14T01:52:45.340Z,42.80
2018-04-14T01:53:19.568Z,44.13
2018-04-14T01:53:53.298Z,44.40
2018-04-14T01:54:27.026Z,44.72
2018-04-14T01:55:00.472Z,43.90
2018-04-14T01:55:33.914Z,43.80
2018-04-14T01:56:07.660Z,45.67
2018-04-14T01:56:41.406Z,43.80
2018-04-14T01:57:14.849Z,43.73
2018-04-14T01:57:48.591Z,43.67
2018-04-14T01:58:23.282Z,44.30
2018-04-14T01:58:57.012Z,43.83
2018-04-14T01:59:30.466Z,45.60
2018-04-14T02:00:03.528Z,45.03
2018-04-14T02:00:37.421Z,43.67
2018-04-14T02:01:11.658Z,44.23
2018-04-14T02:01:46.166Z,44.65
2018-04-14T02:02:19.636Z,45.93
2018-04-14T02:02:54.142Z,43.90
2018-04-14T02:03:27.586Z,44.43
2018-04-14T02:04:01.041Z,46.63
2018-04-14T02:04:34.511Z,42.53
2018-04-14T02:05:07.632Z,44.57
2018-04-14T02:05:41.100Z,42.57
2018-04-14T02:06:14.575Z,44.80
2018-04-14T02:06:47.695Z,41.27
2018-04-14T02:07:21.424Z,40.95
2018-04-14T02:07:54.893Z,42.90
2018-04-14T02:08:28.619Z,44.00
2018-04-14T02:09:02.024Z,43.55
2018-04-14T02:09:35.492Z,45.50
2018-04-14T02:10:08.949Z,43.77
2018-04-14T02:10:42.400Z,42.07
2018-04-14T02:11:15.929Z,42.28
2018-04-14T02:11:50.196Z,44.05
2018-04-14T02:12:24.227Z,43.17
2018-04-14T02:12:58.731Z,44.97
2018-04-14T02:13:33.222Z,44.00
2018-04-14T02:14:06.675Z,43.90
2018-04-14T02:14:40.141Z,42.60
2018-04-14T02:15:13.591Z,43.60
2018-04-14T02:15:48.101Z,43.08
2018-04-14T02:16:21.599Z,44.10
2018-04-14T02:16:55.328Z,43.67
2018-04-14T02:17:28.818Z,43.67
2018-04-14T02:18:02.556Z,46.65
2018-04-14T02:18:37.756Z,43.85
2018-04-14T02:19:11.494Z,44.92
2018-04-14T02:19:45.240Z,42.67
2018-04-14T02:20:18.707Z,47.07
2018-04-14T02:20:52.430Z,46.22
2018-04-14T02:21:25.919Z,46.33
2018-04-14T02:21:59.379Z,47.60
2018-04-14T02:22:33.119Z,48.13
2018-04-14T02:23:06.579Z,46.57
2018-04-14T02:23:41.132Z,47.58
2018-04-14T02:24:14.865Z,48.72
2018-04-14T02:24:48.591Z,48.30
2018-04-14T02:25:22.058Z,49.20
2018-04-14T02:25:56.566Z,49.92
2018-04-14T02:26:30.044Z,49.43
2018-04-14T02:27:04.557Z,50.25
2018-04-14T02:27:38.019Z,46.97
2018-04-14T02:28:12.263Z,47.43
2018-04-14T02:28:45.728Z,47.97
2018-04-14T02:29:20.227Z,49.28
2018-04-14T02:29:53.959Z,48.38
2018-04-14T02:30:27.691Z,47.10
2018-04-14T02:31:01.174Z,45.00
2018-04-14T02:31:35.464Z,43.10
2018-04-14T02:32:08.917Z,46.20
2018-04-14T02:32:42.392Z,47.20
2018-04-14T02:33:16.128Z,45.58
2018-04-14T02:33:50.354Z,46.67
2018-04-14T02:34:23.860Z,43.97
2018-04-14T02:34:58.346Z,46.58
2018-04-14T02:35:32.569Z,44.07
2018-04-14T02:36:06.030Z,43.50
2018-04-14T02:36:40.296Z,42.83
2018-04-14T02:37:13.520Z,42.23
2018-04-14T02:37:47.267Z,43.40
2018-04-14T02:38:21.006Z,42.08
2018-04-14T02:38:54.458Z,42.97
2018-04-14T02:39:28.706Z,44.57
2018-04-14T02:40:03.223Z,46.35
2018-04-14T02:40:36.684Z,42.10
2018-04-14T02:41:10.430Z,44.97
2018-04-14T02:41:44.014Z,45.60
2018-04-14T02:42:17.252Z,43.70
2018-04-14T02:42:50.733Z,44.00
2018-04-14T02:43:24.206Z,44.40
2018-04-14T02:43:58.422Z,43.33
2018-04-14T02:44:31.889Z,45.73
2018-04-14T02:45:06.116Z,46.17
2018-04-14T02:45:39.573Z,42.10
2018-04-14T02:46:13.800Z,45.17
2018-04-14T02:46:47.288Z,44.90
2018-04-14T02:47:20.751Z,45.40
2018-04-14T02:47:54.977Z,45.07
2018-04-14T02:48:28.442Z,43.87
2018-04-14T02:49:01.898Z,44.87
2018-04-14T02:49:36.124Z,47.57
2018-04-14T02:50:10.354Z,44.63
2018-04-14T02:50:43.843Z,44.87
2018-04-14T02:51:17.596Z,47.10
2018-04-14T02:51:51.830Z,49.37
2018-04-14T02:52:25.290Z,48.30
2018-04-14T02:52:58.760Z,48.63
2018-04-14T02:53:33.000Z,50.30
2018-04-14T02:54:06.454Z,49.00
2018-04-14T02:54:40.184Z,49.10
2018-04-14T02:55:13.635Z,48.27
2018-04-14T02:55:47.860Z,50.40
2018-04-14T02:56:21.322Z,46.90
2018-04-14T02:56:55.554Z,46.83
2018-04-14T02:57:29.008Z,48.33
2018-04-14T02:58:03.227Z,48.50
2018-04-14T02:58:36.693Z,48.83
2018-04-14T02:59:10.960Z,47.83
2018-04-14T02:59:44.642Z,46.27
2018-04-14T03:00:18.451Z,49.50
2018-04-14T03:00:52.804Z,47.13
2018-04-14T03:01:26.974Z,48.53
2018-04-14T03:02:00.446Z,49.97
2018-04-14T03:02:33.892Z,47.17
2018-04-14T03:03:07.347Z,49.83
2018-04-14T03:03:40.805Z,48.77
2018-04-14T03:46:01.663Z,33.92
2018-04-14T03:46:35.083Z,34.70
2018-04-14T03:47:08.827Z,36.95
2018-04-14T03:47:42.550Z,38.20
2018-04-14T03:48:16.296Z,37.40
2018-04-14T03:48:50.028Z,37.30
2018-04-14T03:49:23.769Z,38.13
2018-04-14T03:49:57.000Z,39.10
2018-04-14T03:50:30.730Z,36.40
2018-04-14T03:51:04.200Z,37.10
2018-04-14T03:51:37.930Z,37.40
2018-04-14T03:52:11.651Z,35.30
2018-04-14T03:52:45.378Z,36.50
2018-04-14T03:53:18.854Z,36.90
2018-04-14T03:53:52.583Z,35.20
2018-04-14T03:54:26.331Z,36.40
2018-04-14T03:55:00.246Z,35.83
2018-04-14T03:55:33.704Z,34.50
2018-04-14T03:56:07.436Z,35.92
2018-04-14T03:56:41.934Z,34.85
2018-04-14T03:57:15.400Z,34.70
2018-04-14T03:57:48.870Z,34.77
2018-04-14T03:58:23.104Z,34.40
2018-04-14T03:58:56.558Z,32.07
2018-04-14T03:59:30.794Z,33.80
2018-04-14T04:00:03.600Z,33.40
2018-04-14T04:00:37.056Z,33.87
2018-04-14T04:01:10.516Z,33.10
2018-04-14T04:01:43.998Z,34.23
2018-04-14T04:02:18.222Z,31.13
2018-04-14T04:02:51.719Z,31.87
2018-04-14T04:03:25.184Z,32.27
2018-04-14T04:03:58.312Z,31.27
2018-04-14T04:04:31.779Z,31.07
2018-04-14T04:05:05.228Z,32.00
2018-04-14T04:05:38.696Z,32.50
2018-04-14T04:06:12.934Z,28.83
2018-04-14T04:06:46.412Z,28.93
2018-04-14T04:07:19.875Z,31.07
2018-04-14T04:07:53.376Z,28.97
2018-04-14T04:08:26.838Z,32.13
2018-04-14T04:09:00.740Z,30.23
2018-04-14T04:09:34.194Z,29.33
2018-04-14T04:10:07.655Z,30.73
2018-04-14T04:10:41.108Z,30.13
2018-04-14T04:11:14.566Z,30.23
2018-04-14T04:11:48.790Z,32.73
2018-04-14T04:12:22.260Z,31.40
2018-04-14T04:12:55.764Z,31.27
2018-04-14T04:13:28.896Z,30.60
2018-04-14T04:14:02.360Z,30.43
2018-04-14T04:14:35.821Z,30.60
2018-04-14T04:15:09.292Z,32.43
2018-04-14T04:15:42.818Z,30.67
2018-04-14T04:16:17.185Z,29.70
2018-04-14T04:16:50.653Z,28.80
2018-04-14T04:17:24.110Z,29.77
2018-04-14T04:17:57.622Z,30.63
2018-04-14T04:18:42.352Z,31.40
2018-04-14T04:19:27.004Z,29.70
2018-04-14T04:20:12.517Z,27.70
2018-04-14T04:20:57.142Z,28.40
2018-04-14T04:21:41.712Z,27.60
2018-04-14T04:22:26.304Z,28.30
2018-04-14T04:23:20.621Z,27.40
2018-04-14T04:24:05.256Z,27.07
2018-04-14T04:24:49.834Z,28.53
2018-04-14T04:25:30.118Z,26.93
2018-04-14T04:26:03.841Z,26.80
2018-04-14T04:26:37.301Z,27.90
2018-04-14T04:27:11.518Z,29.37
2018-04-14T04:27:44.969Z,27.80
2018-04-14T04:28:18.446Z,27.57
2018-04-14T04:28:52.185Z,26.80
2018-04-14T04:29:25.648Z,26.80
2018-04-14T04:29:59.646Z,26.50
2018-04-14T04:30:33.869Z,28.97
2018-04-14T04:31:07.332Z,27.27
2018-04-14T04:31:40.802Z,25.67
2018-04-14T04:32:15.041Z,26.20
2018-04-14T04:32:48.285Z,26.83
2018-04-14T04:33:21.774Z,26.60
2018-04-14T04:33:56.003Z,26.77
2018-04-14T04:34:29.463Z,27.33
2018-04-14T04:35:03.705Z,25.00
2018-04-14T04:35:37.158Z,25.67
2018-04-14T04:36:11.384Z,26.60
2018-04-14T04:36:44.844Z,25.80
2018-04-14T04:37:19.071Z,26.23
2018-04-14T04:37:52.529Z,25.60
2018-04-14T04:38:26.273Z,26.17
2018-04-14T04:38:59.741Z,26.17
2018-04-14T04:39:33.217Z,25.50
2018-04-14T04:40:06.689Z,24.77
2018-04-14T04:40:40.167Z,24.87
2018-04-14T04:41:13.630Z,24.47
2018-04-14T04:41:47.861Z,24.20
2018-04-14T04:42:21.320Z,24.70
2018-04-14T04:42:55.053Z,23.98
2018-04-14T04:43:28.541Z,23.30
2018-04-14T04:44:02.008Z,24.27
2018-04-14T04:44:35.467Z,24.57
2018-04-14T04:45:08.915Z,25.13
2018-04-14T04:45:42.378Z,24.40
2018-04-14T04:46:15.839Z,22.37
2018-04-14T04:46:49.571Z,24.52
2018-04-14T04:47:23.038Z,22.53
2018-04-14T04:47:57.548Z,23.65
2018-04-14T04:48:31.050Z,22.30
2018-04-14T04:49:04.515Z,21.70
2018-04-14T04:49:37.979Z,22.13
2018-04-14T04:50:11.429Z,21.67
2018-04-14T04:50:44.883Z,21.70
2018-04-14T04:51:18.359Z,20.83
2018-04-14T04:51:51.817Z,20.83
2018-04-14T04:52:25.289Z,21.07
2018-04-14T04:52:59.511Z,21.80
2018-04-14T04:53:33.011Z,21.70
2018-04-14T04:54:06.473Z,21.80
2018-04-14T04:54:40.697Z,22.13
2018-04-14T04:55:14.143Z,20.40
2018-04-14T04:55:48.359Z,20.50
2018-04-14T04:56:22.087Z,20.73
2018-04-14T04:56:55.538Z,23.00
2018-04-14T04:57:28.780Z,20.90
2018-04-14T04:58:02.531Z,21.05
2018-04-14T04:58:36.634Z,20.50
2018-04-14T04:59:09.874Z,21.30
2018-04-14T04:59:43.875Z,20.77
2018-04-14T05:00:18.117Z,20.63
2018-04-14T05:00:51.581Z,21.27
2018-04-14T05:01:25.053Z,18.37
2018-04-14T05:01:58.276Z,20.07
2018-04-14T05:02:31.515Z,19.80
2018-04-14T05:03:05.756Z,20.60
2018-04-14T05:03:39.259Z,19.03
2018-04-14T05:04:12.719Z,19.33
2018-04-14T05:04:46.169Z,20.33
2018-04-14T05:05:20.380Z,19.77
2018-04-14T05:05:53.829Z,20.47
2018-04-14T05:06:27.287Z,19.03
2018-04-14T05:07:00.741Z,20.37
2018-04-14T05:07:34.201Z,20.07
2018-04-14T05:08:08.433Z,20.47
2018-04-14T05:08:41.928Z,19.33
2018-04-14T05:09:15.381Z,20.10
2018-04-14T05:09:49.611Z,19.20
2018-04-14T05:10:23.067Z,19.20
2018-04-14T05:10:57.291Z,20.83
2018-04-14T05:11:31.787Z,19.95
2018-04-14T05:12:05.241Z,19.70
2018-04-14T05:12:38.960Z,18.50
2018-04-14T05:13:12.409Z,20.07
2018-04-14T05:13:46.150Z,19.45
2018-04-14T05:14:19.611Z,19.90
2018-04-14T05:14:53.329Z,18.50
2018-04-14T05:15:27.813Z,18.98
2018-04-14T05:16:01.269Z,19.80
2018-04-14T05:16:34.721Z,21.40
2018-04-14T05:17:08.171Z,18.60
2018-04-14T05:17:41.639Z,19.30
2018-04-14T05:18:15.857Z,19.70
2018-04-14T05:18:49.321Z,20.73
2018-04-14T05:19:23.548Z,19.90
2018-04-14T05:19:56.997Z,19.50
2018-04-14T05:20:30.447Z,20.57
2018-04-14T05:21:03.903Z,20.23
2018-04-14T05:21:37.367Z,19.03
2018-04-14T05:22:11.600Z,20.97
2018-04-14T05:22:45.069Z,19.57
2018-04-14T05:23:18.521Z,20.00
2018-04-14T05:23:52.791Z,19.47
2018-04-14T05:24:26.024Z,20.00
2018-04-14T05:25:00.257Z,20.80
2018-04-14T05:25:33.743Z,20.60
2018-04-14T05:26:07.201Z,21.13
2018-04-14T05:26:40.667Z,20.10
2018-04-14T05:27:14.164Z,20.60
2018-04-14T05:27:48.381Z,21.00
2018-04-14T05:28:21.841Z,20.23
2018-04-14T05:28:55.321Z,18.50
2018-04-14T05:29:28.771Z,20.27
2018-04-14T05:30:02.223Z,21.27
2018-04-14T05:30:35.689Z,19.10
2018-04-14T05:31:09.901Z,21.00
2018-04-14T05:31:43.029Z,19.50
2018-04-14T05:32:16.485Z,19.67
2018-04-14T05:32:49.962Z,19.50
2018-04-14T05:33:23.415Z,19.90
2018-04-14T05:33:57.673Z,19.63
2018-04-14T05:34:31.133Z,19.47
2018-04-14T05:35:04.261Z,20.20
2018-04-14T05:35:37.717Z,20.33
2018-04-14T05:36:11.171Z,19.70
2018-04-14T05:36:44.625Z,19.70
2018-04-14T05:37:18.863Z,20.47
2018-04-14T05:37:52.319Z,21.00
2018-04-14T05:38:26.543Z,19.70
2018-04-14T05:39:00.034Z,19.93
2018-04-14T05:39:33.495Z,19.83
2018-04-14T05:40:07.730Z,19.60
2018-04-14T05:40:41.220Z,19.73
2018-04-14T05:41:14.677Z,19.03
2018-04-14T05:41:48.153Z,19.27
2018-04-14T05:42:22.394Z,19.23
2018-04-14T05:42:55.853Z,18.60
2018-04-14T05:43:29.324Z,19.10
2018-04-14T05:44:03.577Z,18.97
2018-04-14T05:44:37.043Z,18.20
2018-04-14T05:45:10.509Z,18.70
2018-04-14T05:45:43.981Z,17.90
2018-04-14T05:46:18.215Z,18.00
2018-04-14T05:46:51.685Z,18.07
2018-04-14T05:47:25.139Z,18.40
2018-04-14T05:47:59.387Z,17.63
2018-04-14T05:48:32.877Z,18.40
2018-04-14T05:49:06.368Z,17.37
2018-04-14T05:49:39.839Z,18.00
2018-04-14T05:50:13.301Z,17.70
2018-04-14T05:50:46.775Z,17.40
2018-04-14T05:51:21.011Z,18.87
2018-04-14T05:51:54.481Z,17.43
2018-04-14T05:52:27.948Z,18.60
2018-04-14T05:53:02.170Z,18.17
2018-04-14T05:53:35.631Z,18.50
2018-04-14T05:54:09.873Z,16.87
2018-04-14T05:54:43.336Z,17.20
2018-04-14T05:55:16.798Z,17.37
2018-04-14T05:55:49.930Z,17.60
2018-04-14T05:56:23.399Z,17.33
2018-04-14T05:56:56.863Z,18.63
2018-04-14T05:57:31.092Z,17.90
2018-04-14T05:58:04.553Z,17.47
2018-04-14T05:58:38.768Z,16.73
2018-04-14T05:59:12.264Z,18.10
2018-04-14T05:59:45.720Z,18.20
2018-04-14T06:00:19.958Z,17.50
2018-04-14T06:00:53.427Z,17.53
2018-04-14T06:01:26.879Z,18.80
2018-04-14T06:02:01.116Z,18.50
2018-04-14T06:02:34.573Z,18.87
2018-04-14T06:03:08.800Z,18.17
2018-04-14T06:03:42.249Z,19.47
2018-04-14T06:04:15.509Z,19.00
2018-04-14T06:04:48.977Z,18.70
2018-04-14T06:05:22.433Z,18.40
2018-04-14T06:05:55.887Z,18.80
2018-04-14T06:06:29.343Z,17.13
2018-04-14T06:07:02.803Z,18.03
2018-04-14T06:07:36.253Z,18.40
2018-04-14T06:08:10.471Z,18.90
2018-04-14T06:08:43.943Z,17.70
2018-04-14T06:09:18.259Z,17.90
2018-04-14T06:09:51.850Z,17.37
2018-04-14T06:10:25.309Z,17.57
2018-04-14T06:10:59.539Z,18.63
2018-04-14T06:11:32.999Z,16.77
2018-04-14T06:12:07.233Z,16.20
2018-04-14T06:12:40.687Z,17.17
2018-04-14T06:13:14.917Z,18.37
2018-04-14T06:13:48.416Z,16.90
2018-04-14T06:14:21.894Z,17.97
2018-04-14T06:14:55.376Z,17.20
2018-04-14T06:15:28.831Z,17.20
2018-04-14T06:16:03.067Z,16.20
2018-04-14T06:16:36.517Z,17.17
2018-04-14T06:17:10.748Z,17.67
2018-04-14T06:17:44.214Z,18.73
2018-04-14T06:18:17.669Z,16.13
2018-04-14T06:18:51.129Z,16.80
2018-04-14T06:19:24.647Z,17.83
2018-04-14T06:19:58.101Z,17.40
2018-04-14T06:20:31.561Z,17.10
2018-04-14T06:21:05.009Z,18.60
2018-04-14T06:21:39.234Z,17.70
2018-04-14T06:22:12.718Z,19.30
2018-04-14T06:22:47.122Z,17.00
2018-04-14T06:23:20.575Z,18.00
2018-04-14T06:23:54.043Z,17.70
2018-04-14T06:24:27.297Z,17.40
2018-04-14T06:25:00.527Z,18.63
2018-04-14T06:25:34.537Z,19.60
2018-04-14T06:26:08.771Z,17.73
2018-04-14T06:26:41.903Z,17.40
2018-04-14T06:27:16.119Z,18.00
2018-04-14T06:27:50.345Z,18.63
2018-04-14T06:28:23.798Z,19.60
2018-04-14T06:28:58.017Z,17.80
2018-04-14T06:29:31.502Z,18.00
2018-04-14T06:30:04.341Z,19.17
2018-04-14T06:30:37.811Z,20.00
2018-04-14T06:31:11.263Z,19.57
2018-04-14T06:31:44.725Z,19.23
2018-04-14T06:32:18.185Z,19.20
2018-04-14T06:32:52.417Z,19.90
2018-04-14T06:33:25.904Z,20.63
2018-04-14T06:33:59.361Z,19.60
2018-04-14T06:34:33.597Z,20.07
2018-04-14T06:35:07.055Z,19.50
2018-04-14T06:35:41.293Z,19.73
2018-04-14T06:36:14.771Z,21.20
2018-04-14T06:36:48.220Z,20.50
2018-04-14T06:37:22.443Z,19.33
2018-04-14T06:37:55.895Z,18.87
2018-04-14T06:38:29.358Z,20.57
2018-04-14T06:39:02.810Z,20.50
2018-04-14T06:39:36.295Z,19.43
2018-04-14T06:40:09.751Z,22.70
2018-04-14T06:40:43.984Z,20.77
2018-04-14T06:41:17.456Z,22.03
2018-04-14T06:41:50.677Z,20.70
2018-04-14T06:42:23.945Z,20.30
2018-04-14T06:42:57.417Z,21.63
2018-04-14T06:43:30.863Z,20.43
2018-04-14T06:44:05.103Z,21.77
2018-04-14T06:44:38.770Z,21.40
2018-04-14T06:45:12.235Z,21.63
2018-04-14T06:45:46.460Z,22.00
2018-04-14T06:46:19.957Z,20.90
2018-04-14T06:46:54.141Z,22.23
2018-04-14T06:47:27.597Z,21.60
2018-04-14T06:48:01.058Z,22.20
2018-04-14T06:48:34.516Z,21.60
2018-04-14T06:49:07.971Z,20.53
2018-04-14T06:49:42.217Z,22.17
2018-04-14T06:50:15.673Z,22.20
2018-04-14T06:50:49.138Z,21.67
2018-04-14T06:51:23.381Z,21.40
2018-04-14T06:51:56.841Z,20.50
2018-04-14T06:52:30.299Z,21.57
2018-04-14T06:53:03.750Z,20.20
2018-04-14T06:53:37.209Z,20.57
2018-04-14T06:54:10.663Z,20.80
2018-04-14T06:54:44.905Z,19.90
2018-04-14T06:55:18.367Z,20.30
2018-04-14T06:55:51.837Z,19.80
2018-04-14T06:56:26.071Z,20.50
2018-04-14T06:56:59.541Z,21.47
2018-04-14T06:57:32.994Z,21.03
2018-04-14T06:58:06.446Z,21.03
2018-04-14T06:58:39.904Z,21.47
2018-04-14T06:59:13.375Z,21.33
2018-04-14T06:59:46.853Z,19.93
2018-04-14T07:00:21.082Z,21.30
2018-04-14T07:00:54.544Z,20.70
2018-04-14T07:01:28.767Z,20.90
2018-04-14T07:02:02.224Z,20.77
2018-04-14T07:02:36.457Z,22.50
2018-04-14T07:03:09.914Z,20.73
2018-04-14T07:03:44.140Z,21.00
2018-04-14T07:04:17.607Z,21.43
2018-04-14T07:04:51.102Z,20.90
2018-04-14T07:05:25.287Z,20.57
2018-04-14T07:05:59.275Z,21.20
2018-04-14T07:06:33.508Z,20.47
2018-04-14T07:07:06.968Z,20.13
2018-04-14T07:07:40.955Z,21.03
2018-04-14T07:08:14.947Z,19.57
2018-04-14T07:08:49.162Z,21.03
2018-04-14T07:09:23.391Z,21.40
2018-04-14T07:09:56.652Z,21.07
2018-04-14T07:10:30.867Z,21.20
2018-04-14T07:11:04.337Z,22.00
2018-04-14T07:11:38.564Z,20.90
2018-04-14T07:12:12.020Z,20.30
2018-04-14T07:12:46.252Z,21.60
2018-04-14T07:13:19.718Z,22.00
2018-04-14T07:13:52.943Z,21.20
2018-04-14T07:14:26.409Z,21.47
2018-04-14T07:14:59.886Z,21.70
2018-04-14T07:15:33.385Z,21.87
2018-04-14T07:16:06.850Z,21.60
2018-04-14T07:16:40.320Z,21.43
2018-04-14T07:17:13.787Z,21.63
2018-04-14T07:17:48.002Z,24.03
2018-04-14T07:18:22.224Z,21.63
2018-04-14T07:18:55.695Z,21.20
2018-04-14T07:19:29.158Z,21.60
2018-04-14T07:20:03.416Z,21.87
2018-04-14T07:20:36.904Z,22.53
2018-04-14T07:21:10.544Z,22.27
2018-04-14T07:21:44.782Z,20.67
2018-04-14T07:22:18.237Z,22.47
2018-04-14T07:22:52.469Z,20.37
2018-04-14T07:23:25.944Z,20.20
2018-04-14T07:24:00.631Z,21.83
2018-04-14T07:24:34.863Z,20.63
2018-04-14T07:25:08.405Z,20.30
2018-04-14T07:25:42.656Z,21.00
2018-04-14T07:26:16.120Z,21.37
2018-04-14T07:26:49.613Z,20.53
2018-04-14T07:27:23.233Z,20.40
2018-04-14T07:27:56.694Z,19.70
2018-04-14T07:28:30.168Z,18.10
2018-04-14T07:29:03.643Z,20.60
2018-04-14T07:29:37.875Z,19.93
2018-04-14T07:30:11.382Z,19.90
2018-04-14T07:30:44.858Z,20.03
2018-04-14T07:31:18.320Z,19.77
2018-04-14T07:31:51.792Z,20.40
2018-04-14T07:32:25.303Z,19.40
2018-04-14T07:32:59.702Z,19.53
2018-04-14T07:33:33.152Z,19.00
2018-04-14T07:34:07.368Z,18.57
2018-04-14T07:34:40.599Z,20.40
2018-04-14T07:35:14.080Z,19.33
2018-04-14T07:35:48.272Z,19.90
2018-04-14T07:36:21.737Z,19.40
2018-04-14T07:36:55.197Z,18.97
2018-04-14T07:37:29.454Z,19.70
2018-04-14T07:38:03.095Z,19.30
2018-04-14T07:38:36.565Z,20.63
2018-04-14T07:39:10.799Z,19.73
2018-04-14T07:39:44.053Z,20.30
2018-04-14T07:40:18.318Z,20.53
2018-04-14T07:40:51.781Z,21.07
2018-04-14T07:41:25.254Z,19.13
2018-04-14T07:41:58.707Z,19.30
2018-04-14T07:42:32.932Z,20.23
2018-04-14T07:43:06.394Z,18.93
2018-04-14T07:43:40.616Z,19.47
2018-04-14T07:44:14.602Z,18.73
2018-04-14T07:44:48.061Z,18.93
2018-04-14T07:45:21.555Z,20.00
2018-04-14T07:45:55.794Z,20.13
2018-04-14T07:46:29.262Z,19.77
2018-04-14T07:47:03.501Z,20.00
2018-04-14T07:47:36.958Z,19.47
2018-04-14T07:48:10.424Z,21.10
2018-04-14T07:48:44.642Z,19.77
2018-04-14T07:49:18.083Z,19.80
2018-04-14T07:49:51.533Z,19.40
2018-04-14T07:50:25.037Z,18.47
2018-04-14T07:50:58.494Z,20.20
2018-04-14T07:51:31.955Z,20.40
2018-04-14T07:52:06.200Z,19.67
2018-04-14T07:52:39.703Z,19.10
2018-04-14T07:53:13.323Z,18.67
2018-04-14T07:53:46.989Z,17.93
2018-04-14T07:54:20.451Z,19.90
2018-04-14T07:54:53.903Z,18.83
2018-04-14T07:55:27.409Z,19.50
2018-04-14T07:56:00.871Z,18.57
2018-04-14T07:56:34.331Z,19.60
2018-04-14T07:57:08.564Z,19.20
2018-04-14T07:57:41.798Z,17.20
2018-04-14T07:58:15.049Z,19.87
2018-04-14T07:58:48.529Z,18.50
2018-04-14T07:59:21.982Z,18.20
2018-04-14T07:59:55.436Z,18.20
2018-04-14T08:00:28.704Z,18.70
2018-04-14T08:01:02.162Z,18.03
2018-04-14T08:01:35.625Z,19.30
2018-04-14T08:02:09.093Z,18.80
2018-04-14T08:02:42.566Z,18.77
2018-04-14T08:03:16.566Z,17.67
2018-04-14T08:03:50.777Z,17.83
2018-04-14T08:04:25.001Z,18.90